Weather observations for the past three days for
Manitowoc, Manitowoc County Airport
Imperial (Metric)
Date Time (cdt) Wind (mph) Vis. (mi.) Weather Sky Cond. Temperature (ºF) Relative Humidity Wind Chill (°F) Heat Index (°F) Pressure Precipitation (in)
Air Dwpt 6 hour altimeter (in) sea level (mb) 1 hr 3 hr 6 hr
Max. Min.
03 01:56 Calm 10.00 Fair CLR 0 0 0% 29.93 0.0
03 00:56 Calm 5.00 Fair with Haze CLR 0 0 0% 29.93 0.0
02 23:56 Calm 10.00 Fair CLR 0 0 0% 29.92 0.0
02 22:56 Calm 10.00 Fair CLR 0 0 0% 29.92 0.0
02 21:56 Calm 10.00 Fair CLR 0 0 0% 29.93 0.0
02 20:56 Calm 10.00 Fair CLR 0 0 0% 29.92 0.0
02 19:56 Calm 7.00 Fair CLR 0 0 0% 29.91 0.0
02 18:56 E 5 10.00 Fair CLR 0 0 0% 29.9 0.0
02 17:56 SE 6 10.00 Fair CLR 0 0 0% 29.9 0.0
02 16:56 S 5 10.00 Fair CLR 0 0 0% 29.91 0.0
02 15:56 E 6 10.00 Fair CLR 0 0 0% 29.92 0.0
02 14:56 SE 6 10.00 Fair CLR 0 0 0% 29.92 0.0
02 13:56 E 6 8.00 Fair CLR 0 0 0% 29.92 0.0
02 12:56 SE 3 10.00 Fair CLR 0 0 0% 29.93 0.0 0.01
02 11:56 S 6 10.00 Fair CLR 0 0 0% 29.94 0.0 0.01
02 10:56 SE 5 10.00 Light Rain FEW023 SCT045 BKN070 0 0 0% 29.94 0.0
02 09:56 E 6 10.00 Light Rain FEW070 SCT110 0 0 0% 29.92 0.0
02 08:56 Calm 10.00 Light Rain FEW036 BKN100 0 0 0% 29.95 0.0
02 07:56 SE 3 10.00 Partly Cloudy SCT090 0 0 0% 29.95 0.0
02 06:56 Calm 6.00 Partly Cloudy with Haze SCT095 0 0 0% 29.96 0.0 0.01 0.21
02 05:56 N 13 G 22 8.00 Thunderstorm Light Rain FEW018 BKN048 OVC095 0 0 0% 29.99 0.0 0.17
02 04:56 Calm 7.00 Fair CLR 0 0 0% 29.91 0.0
02 03:56 W 7 10.00 Light Rain FEW060 SCT080 BKN100 0 0 0% 29.93 0.0 0.03
02 02:56 Calm 10.00 Partly Cloudy FEW085 SCT120 0 0 0% 29.93 0.0 0.03
02 01:56 W 3 10.00 A Few Clouds FEW100 0 0 0% 29.92 0.0
02 00:56 W 6 10.00 Fair CLR 0 0 0% 29.93 0.0
01 23:56 W 7 10.00 Fair CLR 0 0 0% 29.91 0.0
01 22:56 W 6 10.00 Fair CLR 0 0 0% 29.92 0.0
01 21:56 SW 6 10.00 Fair CLR 0 0 0% 29.9 0.0
01 20:56 SW 5 10.00 Fair CLR 0 0 0% 29.91 0.0
01 19:56 SW 5 10.00 Fair CLR 0 0 0% 29.89 0.0
01 18:56 Calm 10.00 Fair CLR 0 0 0% 29.89 0.0
01 17:56 S 5 10.00 Fair CLR 0 0 0% 29.89 0.0
01 16:56 S 10 10.00 Fair CLR 0 0 0% 29.9 0.0
01 15:56 SE 8 10.00 Fair CLR 0 0 0% 29.91 0.0
01 14:56 SE 12 10.00 Fair CLR 0 0 0% 29.91 0.0
01 13:56 SE 8 7.00 Partly Cloudy SCT001 SCT043 0 0 0% 29.91 0.0
01 12:56 SE 7 10.00 Fair CLR 0 0 0% 29.92 0.0
01 11:56 E 6 10.00 Fair CLR 0 0 0% 29.94 0.0
01 10:56 E 6 6.00 Fair with Haze CLR 0 0 0% 29.95 0.0
01 09:56 SE 8 10.00 Fair CLR 80.1 79 97% 87 29.95 1013.7
01 08:56 N 3 10.00 Fair CLR 80.1 80.1 100% 87 29.94 1013.5
01 07:56 NW 5 8.00 Fair CLR 75.2 0 0% 29.95 1013.5
01 06:56 W 3 5.00 Fair with Haze CLR 73.4 0 75.9 72 0% 29.92 1012.8
01 05:56 W 3 6.00 Fair with Haze CLR 73.4 0 0% 29.91 1012.4
01 04:56 W 5 9.00 Fair CLR 73.4 0 0% 29.91 1012.3
01 03:56 W 7 10.00 Fair CLR 75.2 0 0% 29.9 1012.1
01 02:56 W 7 10.00 Fair CLR 75.2 0 0% 29.9 1011.9
01 01:56 W 3 10.00 Fair CLR 75.2 0 0% 29.89 1011.7
01 00:56 Calm 10.00 Fair CLR 75 75 82.9 75 100% 72 29.9 1012.1
31 23:56 SW 6 10.00 Fair CLR 77 77 100% 78 29.9 1011.9
31 22:56 SW 5 10.00 A Few Clouds FEW110 78.1 78.1 100% 81 29.9 1012.1
31 21:56 SW 3 10.00 Fair CLR 79 78.1 97% 83 29.91 1012.2
31 20:56 SW 5 10.00 Fair CLR 80.1 78.1 94% 86 29.9 1012.1
31 19:56 SW 5 3.00 Fog/Mist CLR 79 79 100% 84 29.87 1011.2
31 18:56 SW 5 10.00 Fair CLR 79 75.9 90 77 90% 83 29.86 1010.8
31 17:56 Calm 10.00 Fair CLR 86 75 70% 95 29.83 1009.7
31 16:56 W 7 10.00 Fair CLR 87.1 73.9 65% 95 29.85 1010.2
31 15:56 W 9 10.00 Fair CLR 88 75 66% 98 29.84 1009.8
31 14:56 W 8 10.00 Fair CLR 88 73 61% 96 29.84 1010.0
31 13:56 Vrbl 7 10.00 Fair CLR 89.1 72 57% 96 29.85 1010.3
31 11:56 W 12 10.00 Fair CLR 86 70 59% 91 29.86 1010.5
31 10:56 SW 12 10.00 Fair CLR 82 72 72% 87 29.87 1011.0
31 09:56 S 6 5.00 Fog/Mist CLR 75 73.9 96% 73 29.87 1011.2
31 08:56 S 8 10.00 Fair CLR 73 73 100% 29.88 1011.5
31 07:56 S 10 10.00 Fair CLR 73 73 100% 29.89 1011.9
31 06:56 S 10 G 17 9.00 Partly Cloudy SCT085 71.6 0 71.1 69.1 0% 29.88 1011.6 0.01 0.15
31 05:56 SE 9 7.00 Overcast OVC080 69.8 0 0% 29.89 1012.0 0.14
31 04:56 Calm 10.00 Overcast OVC075 69.8 0 0% 29.92 1012.8
31 03:56 Calm 10.00 Mostly Cloudy BKN100 69.8 0 0% 29.92 1012.8
31 02:56 SE 3 10.00 Mostly Cloudy BKN110 69.8 0 0% 29.92 1012.7
Date Time (cdt) Wind (mph) Vis. (mi.) Weather Sky Cond. Air Dwpt Max. Min. Relative Humidity Wind Chill (°F) Heat Index (°F) altimeter (in) sea level (mb) 1 hr 3 hr 6 hr
6 hour
Temperature (ºF) Pressure Precipitation (in)